Adkins, Texas
Current Conditions -  °F | °C
As of 5:58 PM on Wednesday 22 Oct 2014 (Local Time) from KRND Reporting Station
Clear Clear  
Wind Chill: 81°   Ceiling: Unl
Heat Index: 81°   Visibility: 10mi
Dew Point: 54°   Wind: 6mph
Humidity: 39%   Direction: 90°E
Pressure: 30.04"   Gusts: NA
Location:  29.39°N, 98.24°W
Report Text: KRND 222258Z AUTO 09005KT 10SM CLR 27/12 A3004 RMK AO2 SLP167 T02730124
Loading
Personal Weather Stations






























Interactive Weather Map
Tropical Storm Tracking
New forecast layout! Learn more

10-Day Weather Forecast

Advertisements
Track Severe Weather on mobile